Alton, New York
Current Conditions -  °F | °C
As of 11:54 PM on Friday 24 Oct 2014 (Local Time) from KFZY Reporting Station
Clear Clear  
Wind Chill:   Ceiling: Unl
Heat Index:   Visibility: 10mi
Dew Point:   Wind: 5mph
Humidity: 74%   Direction: 230°SW
Pressure: 29.9"   Gusts: NA
Location:  43.21°N, 76.98°W
Report Text: KFZY 250354Z AUTO 23004KT 10SM CLR 07/03 A2990 RMK AO2 SLP125 T00720028
Loading
Personal Weather Stations






























Interactive Weather Map
Tropical Storm Tracking
New forecast layout! Learn more

10-Day Weather Forecast

Advertisements
Track Severe Weather on mobile